sensor_id;sensor_type;location;lat;lon;timestamp;P1;P2;P0
26720;PMS1003;15950;51.112;6.966;2024-01-25T00:02:18;020;014;
26720;PMS1003;15950;51.112;6.966;2024-01-25T00:05:18;016;013;
26720;PMS1003;15950;51.112;6.966;2024-01-25T00:08:18;010;007;
26720;PMS1003;15950;51.112;6.966;2024-01-25T00:11:18;006;004;
26720;PMS1003;15950;51.112;6.966;2024-01-25T00:14:18;009;006;
26720;PMS1003;15950;51.112;6.966;2024-01-25T00:17:18;011;008;
26720;PMS1003;15950;51.112;6.966;2024-01-25T00:20:18;014;011;
26720;PMS1003;15950;51.112;6.966;2024-01-25T00:23:18;006;004;
26720;PMS1003;15950;51.112;6.966;2024-01-25T00:26:18;005;003;
26720;PMS1003;15950;51.112;6.966;2024-01-25T00:29:18;012;009;
26720;PMS1003;15950;51.112;6.966;2024-01-25T00:32:18;007;005;
26720;PMS1003;15950;51.112;6.966;2024-01-25T00:35:18;010;007;
26720;PMS1003;15950;51.112;6.966;2024-01-25T00:38:18;008;006;
26720;PMS1003;15950;51.112;6.966;2024-01-25T00:41:19;006;004;
26720;PMS1003;15950;51.112;6.966;2024-01-25T00:44:18;006;004;
26720;PMS1003;15950;51.112;6.966;2024-01-25T00:47:18;010;007;
26720;PMS1003;15950;51.112;6.966;2024-01-25T00:50:18;007;005;
26720;PMS1003;15950;51.112;6.966;2024-01-25T00:53:18;010;007;
26720;PMS1003;15950;51.112;6.966;2024-01-25T00:56:18;014;010;
26720;PMS1003;15950;51.112;6.966;2024-01-25T00:59:19;009;006;
26720;PMS1003;15950;51.112;6.966;2024-01-25T01:02:18;010;007;
26720;PMS1003;15950;51.112;6.966;2024-01-25T01:05:18;006;004;
26720;PMS1003;15950;51.112;6.966;2024-01-25T01:08:18;009;007;
26720;PMS1003;15950;51.112;6.966;2024-01-25T01:11:18;010;007;
26720;PMS1003;15950;51.112;6.966;2024-01-25T01:14:18;012;008;
26720;PMS1003;15950;51.112;6.966;2024-01-25T01:17:18;013;010;
26720;PMS1003;15950;51.112;6.966;2024-01-25T01:20:18;013;009;
26720;PMS1003;15950;51.112;6.966;2024-01-25T01:23:18;006;004;
26720;PMS1003;15950;51.112;6.966;2024-01-25T01:26:18;006;004;
26720;PMS1003;15950;51.112;6.966;2024-01-25T01:29:18;013;009;
26720;PMS1003;15950;51.112;6.966;2024-01-25T01:32:18;007;005;
26720;PMS1003;15950;51.112;6.966;2024-01-25T01:35:18;009;006;
26720;PMS1003;15950;51.112;6.966;2024-01-25T01:38:18;010;007;
26720;PMS1003;15950;51.112;6.966;2024-01-25T01:41:18;007;005;
26720;PMS1003;15950;51.112;6.966;2024-01-25T01:44:18;003;002;
26720;PMS1003;15950;51.112;6.966;2024-01-25T01:47:19;013;009;
26720;PMS1003;15950;51.112;6.966;2024-01-25T01:50:18;005;003;
26720;PMS1003;15950;51.112;6.966;2024-01-25T01:53:18;007;007;
26720;PMS1003;15950;51.112;6.966;2024-01-25T01:56:18;006;004;
26720;PMS1003;15950;51.112;6.966;2024-01-25T01:59:18;013;009;
26720;PMS1003;15950;51.112;6.966;2024-01-25T02:02:18;009;006;
26720;PMS1003;15950;51.112;6.966;2024-01-25T02:05:18;007;005;
26720;PMS1003;15950;51.112;6.966;2024-01-25T02:08:18;010;007;
26720;PMS1003;15950;51.112;6.966;2024-01-25T02:11:19;010;007;
26720;PMS1003;15950;51.112;6.966;2024-01-25T02:14:18;007;005;
26720;PMS1003;15950;51.112;6.966;2024-01-25T02:17:18;009;006;
26720;PMS1003;15950;51.112;6.966;2024-01-25T02:20:18;010;007;
26720;PMS1003;15950;51.112;6.966;2024-01-25T02:23:18;006;004;
26720;PMS1003;15950;51.112;6.966;2024-01-25T02:26:18;006;004;
26720;PMS1003;15950;51.112;6.966;2024-01-25T02:29:18;013;009;
26720;PMS1003;15950;51.112;6.966;2024-01-25T02:32:18;005;003;
26720;PMS1003;15950;51.112;6.966;2024-01-25T02:35:18;006;004;
26720;PMS1003;15950;51.112;6.966;2024-01-25T02:38:18;007;005;
26720;PMS1003;15950;51.112;6.966;2024-01-25T02:41:18;005;003;
26720;PMS1003;15950;51.112;6.966;2024-01-25T02:44:18;010;007;
26720;PMS1003;15950;51.112;6.966;2024-01-25T02:47:18;007;005;
26720;PMS1003;15950;51.112;6.966;2024-01-25T02:50:18;006;004;
26720;PMS1003;15950;51.112;6.966;2024-01-25T02:53:18;013;009;
26720;PMS1003;15950;51.112;6.966;2024-01-25T02:56:18;007;005;
26720;PMS1003;15950;51.112;6.966;2024-01-25T02:59:18;007;005;
26720;PMS1003;15950;51.112;6.966;2024-01-25T03:02:18;007;005;
26720;PMS1003;15950;51.112;6.966;2024-01-25T03:05:18;013;010;
26720;PMS1003;15950;51.112;6.966;2024-01-25T03:08:18;008;006;
26720;PMS1003;15950;51.112;6.966;2024-01-25T03:11:18;009;006;
26720;PMS1003;15950;51.112;6.966;2024-01-25T03:14:18;014;010;
26720;PMS1003;15950;51.112;6.966;2024-01-25T03:17:18;009;006;
26720;PMS1003;15950;51.112;6.966;2024-01-25T03:20:18;010;007;
26720;PMS1003;15950;51.112;6.966;2024-01-25T03:23:18;007;005;
26720;PMS1003;15950;51.112;6.966;2024-01-25T03:26:18;010;007;
26720;PMS1003;15950;51.112;6.966;2024-01-25T03:29:18;015;011;
26720;PMS1003;15950;51.112;6.966;2024-01-25T03:32:18;014;010;
26720;PMS1003;15950;51.112;6.966;2024-01-25T03:35:18;010;007;
26720;PMS1003;15950;51.112;6.966;2024-01-25T03:38:18;012;008;
26720;PMS1003;15950;51.112;6.966;2024-01-25T03:41:18;009;006;
26720;PMS1003;15950;51.112;6.966;2024-01-25T03:44:18;011;008;
26720;PMS1003;15950;51.112;6.966;2024-01-25T03:47:18;007;005;
26720;PMS1003;15950;51.112;6.966;2024-01-25T03:50:18;012;008;
26720;PMS1003;15950;51.112;6.966;2024-01-25T03:53:18;020;014;
26720;PMS1003;15950;51.112;6.966;2024-01-25T03:56:18;010;007;
26720;PMS1003;15950;51.112;6.966;2024-01-25T03:59:18;006;004;
26720;PMS1003;15950;51.112;6.966;2024-01-25T04:02:18;012;008;
26720;PMS1003;15950;51.112;6.966;2024-01-25T04:05:18;012;008;
26720;PMS1003;15950;51.112;6.966;2024-01-25T04:08:18;006;004;
26720;PMS1003;15950;51.112;6.966;2024-01-25T04:11:18;007;006;
26720;PMS1003;15950;51.112;6.966;2024-01-25T04:14:18;006;004;
26720;PMS1003;15950;51.112;6.966;2024-01-25T04:17:18;012;010;
26720;PMS1003;15950;51.112;6.966;2024-01-25T04:20:18;006;004;
26720;PMS1003;15950;51.112;6.966;2024-01-25T04:23:18;016;011;
26720;PMS1003;15950;51.112;6.966;2024-01-25T04:26:18;012;008;
26720;PMS1003;15950;51.112;6.966;2024-01-25T04:29:18;009;006;
26720;PMS1003;15950;51.112;6.966;2024-01-25T04:32:18;007;005;
26720;PMS1003;15950;51.112;6.966;2024-01-25T04:35:18;012;008;
26720;PMS1003;15950;51.112;6.966;2024-01-25T04:38:18;010;007;
26720;PMS1003;15950;51.112;6.966;2024-01-25T04:41:18;009;006;
26720;PMS1003;15950;51.112;6.966;2024-01-25T04:44:18;010;007;
26720;PMS1003;15950;51.112;6.966;2024-01-25T04:47:18;006;004;
26720;PMS1003;15950;51.112;6.966;2024-01-25T04:50:18;007;005;
26720;PMS1003;15950;51.112;6.966;2024-01-25T04:53:18;014;011;
26720;PMS1003;15950;51.112;6.966;2024-01-25T04:56:18;006;004;
26720;PMS1003;15950;51.112;6.966;2024-01-25T04:59:18;008;006;
26720;PMS1003;15950;51.112;6.966;2024-01-25T05:02:18;005;003;
26720;PMS1003;15950;51.112;6.966;2024-01-25T05:05:18;007;005;
26720;PMS1003;15950;51.112;6.966;2024-01-25T05:08:18;006;004;
26720;PMS1003;15950;51.112;6.966;2024-01-25T05:11:18;009;008;
26720;PMS1003;15950;51.112;6.966;2024-01-25T05:14:18;013;009;
26720;PMS1003;15950;51.112;6.966;2024-01-25T05:17:18;009;006;
26720;PMS1003;15950;51.112;6.966;2024-01-25T05:20:18;007;005;
26720;PMS1003;15950;51.112;6.966;2024-01-25T05:23:18;007;005;
26720;PMS1003;15950;51.112;6.966;2024-01-25T05:26:18;006;004;
26720;PMS1003;15950;51.112;6.966;2024-01-25T05:29:18;006;004;
26720;PMS1003;15950;51.112;6.966;2024-01-25T05:32:18;005;003;
26720;PMS1003;15950;51.112;6.966;2024-01-25T05:35:18;009;006;
26720;PMS1003;15950;51.112;6.966;2024-01-25T05:38:18;006;004;
26720;PMS1003;15950;51.112;6.966;2024-01-25T05:41:18;009;006;
26720;PMS1003;15950;51.112;6.966;2024-01-25T05:44:18;011;008;
26720;PMS1003;15950;51.112;6.966;2024-01-25T05:47:18;010;007;
26720;PMS1003;15950;51.112;6.966;2024-01-25T05:50:18;003;002;
26720;PMS1003;15950;51.112;6.966;2024-01-25T05:53:18;007;005;
26720;PMS1003;15950;51.112;6.966;2024-01-25T05:56:18;005;003;
26720;PMS1003;15950;51.112;6.966;2024-01-25T05:59:18;009;006;
26720;PMS1003;15950;51.112;6.966;2024-01-25T06:02:18;005;003;
26720;PMS1003;15950;51.112;6.966;2024-01-25T06:05:18;012;008;
26720;PMS1003;15950;51.112;6.966;2024-01-25T06:08:18;007;005;
26720;PMS1003;15950;51.112;6.966;2024-01-25T06:11:18;006;004;
26720;PMS1003;15950;51.112;6.966;2024-01-25T06:14:18;009;006;
26720;PMS1003;15950;51.112;6.966;2024-01-25T06:17:18;009;006;
26720;PMS1003;15950;51.112;6.966;2024-01-25T06:20:18;010;007;
26720;PMS1003;15950;51.112;6.966;2024-01-25T06:23:18;005;003;
26720;PMS1003;15950;51.112;6.966;2024-01-25T06:26:18;012;008;
26720;PMS1003;15950;51.112;6.966;2024-01-25T06:29:18;011;008;
26720;PMS1003;15950;51.112;6.966;2024-01-25T06:32:18;010;007;
26720;PMS1003;15950;51.112;6.966;2024-01-25T06:35:18;015;011;
26720;PMS1003;15950;51.112;6.966;2024-01-25T06:38:18;010;007;
26720;PMS1003;15950;51.112;6.966;2024-01-25T06:41:18;006;004;
26720;PMS1003;15950;51.112;6.966;2024-01-25T06:44:18;012;008;
26720;PMS1003;15950;51.112;6.966;2024-01-25T06:47:18;010;007;
26720;PMS1003;15950;51.112;6.966;2024-01-25T06:50:18;006;004;
26720;PMS1003;15950;51.112;6.966;2024-01-25T06:53:18;003;002;
26720;PMS1003;15950;51.112;6.966;2024-01-25T06:56:18;003;002;
26720;PMS1003;15950;51.112;6.966;2024-01-25T06:59:18;009;006;
26720;PMS1003;15950;51.112;6.966;2024-01-25T07:02:18;005;004;
26720;PMS1003;15950;51.112;6.966;2024-01-25T07:05:18;005;005;
26720;PMS1003;15950;51.112;6.966;2024-01-25T07:08:18;005;003;
26720;PMS1003;15950;51.112;6.966;2024-01-25T07:11:18;013;009;
26720;PMS1003;15950;51.112;6.966;2024-01-25T07:14:18;014;010;
26720;PMS1003;15950;51.112;6.966;2024-01-25T07:17:18;005;003;
26720;PMS1003;15950;51.112;6.966;2024-01-25T07:20:18;007;005;
26720;PMS1003;15950;51.112;6.966;2024-01-25T07:23:20;007;006;
26720;PMS1003;15950;51.112;6.966;2024-01-25T07:26:18;010;008;
26720;PMS1003;15950;51.112;6.966;2024-01-25T07:29:18;012;008;
26720;PMS1003;15950;51.112;6.966;2024-01-25T07:32:19;010;007;
26720;PMS1003;15950;51.112;6.966;2024-01-25T07:35:18;007;005;
26720;PMS1003;15950;51.112;6.966;2024-01-25T07:38:18;006;004;
26720;PMS1003;15950;51.112;6.966;2024-01-25T07:41:18;006;004;
26720;PMS1003;15950;51.112;6.966;2024-01-25T07:44:18;007;005;
26720;PMS1003;15950;51.112;6.966;2024-01-25T07:47:18;009;006;
26720;PMS1003;15950;51.112;6.966;2024-01-25T07:50:18;006;005;
26720;PMS1003;15950;51.112;6.966;2024-01-25T07:53:18;012;010;
26720;PMS1003;15950;51.112;6.966;2024-01-25T07:56:18;011;009;
26720;PMS1003;15950;51.112;6.966;2024-01-25T07:59:18;012;008;
26720;PMS1003;15950;51.112;6.966;2024-01-25T08:02:18;009;006;
26720;PMS1003;15950;51.112;6.966;2024-01-25T08:05:18;009;008;
26720;PMS1003;15950;51.112;6.966;2024-01-25T08:08:23;007;005;
26720;PMS1003;15950;51.112;6.966;2024-01-25T08:11:18;009;006;
26720;PMS1003;15950;51.112;6.966;2024-01-25T08:14:18;007;005;
26720;PMS1003;15950;51.112;6.966;2024-01-25T08:17:18;003;002;
26720;PMS1003;15950;51.112;6.966;2024-01-25T08:20:18;005;003;
26720;PMS1003;15950;51.112;6.966;2024-01-25T08:23:18;006;004;
26720;PMS1003;15950;51.112;6.966;2024-01-25T08:26:18;007;005;
26720;PMS1003;15950;51.112;6.966;2024-01-25T08:29:18;008;007;
26720;PMS1003;15950;51.112;6.966;2024-01-25T08:32:18;007;005;
26720;PMS1003;15950;51.112;6.966;2024-01-25T08:35:18;009;006;
26720;PMS1003;15950;51.112;6.966;2024-01-25T08:38:18;012;008;
26720;PMS1003;15950;51.112;6.966;2024-01-25T08:41:18;012;011;
26720;PMS1003;15950;51.112;6.966;2024-01-25T08:44:18;013;009;
26720;PMS1003;15950;51.112;6.966;2024-01-25T08:47:18;008;006;
26720;PMS1003;15950;51.112;6.966;2024-01-25T08:50:18;020;016;
26720;PMS1003;15950;51.112;6.966;2024-01-25T08:53:19;010;007;
26720;PMS1003;15950;51.112;6.966;2024-01-25T08:56:18;010;007;
26720;PMS1003;15950;51.112;6.966;2024-01-25T08:59:18;006;004;
26720;PMS1003;15950;51.112;6.966;2024-01-25T09:02:18;007;005;
26720;PMS1003;15950;51.112;6.966;2024-01-25T09:05:18;013;009;
26720;PMS1003;15950;51.112;6.966;2024-01-25T09:08:18;010;007;
26720;PMS1003;15950;51.112;6.966;2024-01-25T09:11:18;012;008;
26720;PMS1003;15950;51.112;6.966;2024-01-25T09:14:18;014;010;
26720;PMS1003;15950;51.112;6.966;2024-01-25T09:17:18;010;008;
26720;PMS1003;15950;51.112;6.966;2024-01-25T09:20:18;010;007;
26720;PMS1003;15950;51.112;6.966;2024-01-25T09:23:18;007;005;
26720;PMS1003;15950;51.112;6.966;2024-01-25T09:26:18;012;009;
26720;PMS1003;15950;51.112;6.966;2024-01-25T09:29:18;011;008;
26720;PMS1003;15950;51.112;6.966;2024-01-25T09:32:18;012;008;
26720;PMS1003;15950;51.112;6.966;2024-01-25T09:35:18;010;007;
26720;PMS1003;15950;51.112;6.966;2024-01-25T09:38:18;013;009;
26720;PMS1003;15950;51.112;6.966;2024-01-25T09:41:18;017;015;
26720;PMS1003;15950;51.112;6.966;2024-01-25T09:44:18;009;006;
26720;PMS1003;15950;51.112;6.966;2024-01-25T09:47:18;021;015;
26720;PMS1003;15950;51.112;6.966;2024-01-25T09:50:18;013;009;
26720;PMS1003;15950;51.112;6.966;2024-01-25T09:53:21;016;011;
26720;PMS1003;15950;51.112;6.966;2024-01-25T09:56:19;016;011;
26720;PMS1003;15950;51.112;6.966;2024-01-25T09:59:18;017;012;
26720;PMS1003;15950;51.112;6.966;2024-01-25T10:02:18;012;008;
26720;PMS1003;15950;51.112;6.966;2024-01-25T10:05:18;017;013;
26720;PMS1003;15950;51.112;6.966;2024-01-25T10:08:18;020;014;
26720;PMS1003;15950;51.112;6.966;2024-01-25T10:11:18;018;013;
26720;PMS1003;15950;51.112;6.966;2024-01-25T10:14:18;013;009;
26720;PMS1003;15950;51.112;6.966;2024-01-25T10:17:18;016;013;
26720;PMS1003;15950;51.112;6.966;2024-01-25T10:20:18;014;010;
26720;PMS1003;15950;51.112;6.966;2024-01-25T10:23:18;014;010;
26720;PMS1003;15950;51.112;6.966;2024-01-25T10:26:18;019;016;
26720;PMS1003;15950;51.112;6.966;2024-01-25T10:29:18;014;010;
26720;PMS1003;15950;51.112;6.966;2024-01-25T10:32:18;019;013;
26720;PMS1003;15950;51.112;6.966;2024-01-25T10:35:18;015;013;
26720;PMS1003;15950;51.112;6.966;2024-01-25T10:38:18;014;010;
26720;PMS1003;15950;51.112;6.966;2024-01-25T10:41:18;016;011;
26720;PMS1003;15950;51.112;6.966;2024-01-25T10:44:18;014;010;
26720;PMS1003;15950;51.112;6.966;2024-01-25T10:47:18;019;013;
26720;PMS1003;15950;51.112;6.966;2024-01-25T10:50:18;019;013;
26720;PMS1003;15950;51.112;6.966;2024-01-25T10:53:18;016;011;
26720;PMS1003;15950;51.112;6.966;2024-01-25T10:56:18;024;018;
26720;PMS1003;15950;51.112;6.966;2024-01-25T10:59:18;021;015;
26720;PMS1003;15950;51.112;6.966;2024-01-25T11:02:18;020;014;
26720;PMS1003;15950;51.112;6.966;2024-01-25T11:05:18;019;013;
26720;PMS1003;15950;51.112;6.966;2024-01-25T11:08:18;019;013;
26720;PMS1003;15950;51.112;6.966;2024-01-25T11:11:18;016;011;
26720;PMS1003;15950;51.112;6.966;2024-01-25T11:14:19;021;015;
26720;PMS1003;15950;51.112;6.966;2024-01-25T11:17:18;022;016;
26720;PMS1003;15950;51.112;6.966;2024-01-25T11:20:21;021;015;
26720;PMS1003;15950;51.112;6.966;2024-01-25T11:23:18;024;017;
26720;PMS1003;15950;51.112;6.966;2024-01-25T11:26:18;025;021;
26720;PMS1003;15950;51.112;6.966;2024-01-25T11:29:18;021;015;
26720;PMS1003;15950;51.112;6.966;2024-01-25T11:32:18;023;016;
26720;PMS1003;15950;51.112;6.966;2024-01-25T11:35:18;028;020;
26720;PMS1003;15950;51.112;6.966;2024-01-25T11:38:18;023;016;
26720;PMS1003;15950;51.112;6.966;2024-01-25T11:41:18;027;021;
26720;PMS1003;15950;51.112;6.966;2024-01-25T11:44:18;027;022;
26720;PMS1003;15950;51.112;6.966;2024-01-25T11:47:18;034;025;
26720;PMS1003;15950;51.112;6.966;2024-01-25T11:50:18;021;015;
26720;PMS1003;15950;51.112;6.966;2024-01-25T11:53:18;017;012;
26720;PMS1003;15950;51.112;6.966;2024-01-25T11:59:18;019;013;
26720;PMS1003;15950;51.112;6.966;2024-01-25T12:02:18;019;014;
26720;PMS1003;15950;51.112;6.966;2024-01-25T12:05:18;015;012;
26720;PMS1003;15950;51.112;6.966;2024-01-25T12:08:18;020;014;
26720;PMS1003;15950;51.112;6.966;2024-01-25T12:11:18;026;019;
26720;PMS1003;15950;51.112;6.966;2024-01-25T12:14:18;028;020;
26720;PMS1003;15950;51.112;6.966;2024-01-25T12:17:18;022;016;
26720;PMS1003;15950;51.112;6.966;2024-01-25T12:20:18;026;019;
26720;PMS1003;15950;51.112;6.966;2024-01-25T12:23:18;024;017;
26720;PMS1003;15950;51.112;6.966;2024-01-25T12:26:18;017;012;
26720;PMS1003;15950;51.112;6.966;2024-01-25T12:29:18;027;019;
26720;PMS1003;15950;51.112;6.966;2024-01-25T12:32:18;023;016;
26720;PMS1003;15950;51.112;6.966;2024-01-25T12:35:18;017;012;
26720;PMS1003;15950;51.112;6.966;2024-01-25T12:38:18;019;016;
26720;PMS1003;15950;51.112;6.966;2024-01-25T12:41:18;019;013;
26720;PMS1003;15950;51.112;6.966;2024-01-25T12:44:18;023;016;
26720;PMS1003;15950;51.112;6.966;2024-01-25T12:47:18;016;011;
26720;PMS1003;15950;51.112;6.966;2024-01-25T12:50:18;021;017;
26720;PMS1003;15950;51.112;6.966;2024-01-25T12:53:18;012;008;
26720;PMS1003;15950;51.112;6.966;2024-01-25T12:56:18;017;012;
26720;PMS1003;15950;51.112;6.966;2024-01-25T12:59:18;019;013;
26720;PMS1003;15950;51.112;6.966;2024-01-25T13:02:18;012;008;
26720;PMS1003;15950;51.112;6.966;2024-01-25T13:05:19;013;009;
26720;PMS1003;15950;51.112;6.966;2024-01-25T13:08:18;018;014;
26720;PMS1003;15950;51.112;6.966;2024-01-25T13:11:18;019;013;
26720;PMS1003;15950;51.112;6.966;2024-01-25T13:14:18;018;016;
26720;PMS1003;15950;51.112;6.966;2024-01-25T13:17:18;019;013;
26720;PMS1003;15950;51.112;6.966;2024-01-25T13:20:18;014;010;
26720;PMS1003;15950;51.112;6.966;2024-01-25T13:23:18;016;011;
26720;PMS1003;15950;51.112;6.966;2024-01-25T13:26:18;013;009;
26720;PMS1003;15950;51.112;6.966;2024-01-25T13:29:18;006;004;
26720;PMS1003;15950;51.112;6.966;2024-01-25T13:32:18;023;016;
26720;PMS1003;15950;51.112;6.966;2024-01-25T13:35:18;007;005;
26720;PMS1003;15950;51.112;6.966;2024-01-25T13:38:18;013;009;
26720;PMS1003;15950;51.112;6.966;2024-01-25T13:41:18;016;011;
26720;PMS1003;15950;51.112;6.966;2024-01-25T13:44:18;007;005;
26720;PMS1003;15950;51.112;6.966;2024-01-25T13:47:18;009;006;
26720;PMS1003;15950;51.112;6.966;2024-01-25T13:50:18;007;005;
26720;PMS1003;15950;51.112;6.966;2024-01-25T13:53:18;013;010;
26720;PMS1003;15950;51.112;6.966;2024-01-25T13:56:18;016;011;
26720;PMS1003;15950;51.112;6.966;2024-01-25T13:59:18;016;011;
26720;PMS1003;15950;51.112;6.966;2024-01-25T14:02:18;009;006;
26720;PMS1003;15950;51.112;6.966;2024-01-25T14:05:18;012;008;
26720;PMS1003;15950;51.112;6.966;2024-01-25T14:08:18;012;011;
26720;PMS1003;15950;51.112;6.966;2024-01-25T14:11:18;007;006;
26720;PMS1003;15950;51.112;6.966;2024-01-25T14:14:18;010;007;
26720;PMS1003;15950;51.112;6.966;2024-01-25T14:17:18;008;008;
26720;PMS1003;15950;51.112;6.966;2024-01-25T14:20:18;016;011;
26720;PMS1003;15950;51.112;6.966;2024-01-25T14:23:18;028;024;
26720;PMS1003;15950;51.112;6.966;2024-01-25T14:26:18;014;010;
26720;PMS1003;15950;51.112;6.966;2024-01-25T14:29:18;010;008;
26720;PMS1003;15950;51.112;6.966;2024-01-25T14:32:18;010;007;
26720;PMS1003;15950;51.112;6.966;2024-01-25T14:35:18;013;009;
26720;PMS1003;15950;51.112;6.966;2024-01-25T14:38:18;014;010;
26720;PMS1003;15950;51.112;6.966;2024-01-25T14:41:18;007;005;
26720;PMS1003;15950;51.112;6.966;2024-01-25T14:44:18;007;005;
26720;PMS1003;15950;51.112;6.966;2024-01-25T14:47:18;012;009;
26720;PMS1003;15950;51.112;6.966;2024-01-25T14:50:18;011;008;
26720;PMS1003;15950;51.112;6.966;2024-01-25T14:53:18;013;009;
26720;PMS1003;15950;51.112;6.966;2024-01-25T14:56:18;010;007;
26720;PMS1003;15950;51.112;6.966;2024-01-25T14:59:18;006;004;
26720;PMS1003;15950;51.112;6.966;2024-01-25T15:02:18;017;012;
26720;PMS1003;15950;51.112;6.966;2024-01-25T15:05:18;009;006;
26720;PMS1003;15950;51.112;6.966;2024-01-25T15:08:18;009;006;
26720;PMS1003;15950;51.112;6.966;2024-01-25T15:11:18;006;004;
26720;PMS1003;15950;51.112;6.966;2024-01-25T15:14:18;013;009;
26720;PMS1003;15950;51.112;6.966;2024-01-25T15:17:18;006;004;
26720;PMS1003;15950;51.112;6.966;2024-01-25T15:20:18;009;006;
26720;PMS1003;15950;51.112;6.966;2024-01-25T15:23:18;010;007;
26720;PMS1003;15950;51.112;6.966;2024-01-25T15:26:18;009;006;
26720;PMS1003;15950;51.112;6.966;2024-01-25T15:29:18;003;002;
26720;PMS1003;15950;51.112;6.966;2024-01-25T15:32:18;010;007;
26720;PMS1003;15950;51.112;6.966;2024-01-25T15:35:18;005;003;
26720;PMS1003;15950;51.112;6.966;2024-01-25T15:38:18;005;003;
26720;PMS1003;15950;51.112;6.966;2024-01-25T15:41:18;010;007;
26720;PMS1003;15950;51.112;6.966;2024-01-25T15:44:18;013;009;
26720;PMS1003;15950;51.112;6.966;2024-01-25T15:47:18;007;005;
26720;PMS1003;15950;51.112;6.966;2024-01-25T15:50:18;006;005;
26720;PMS1003;15950;51.112;6.966;2024-01-25T15:53:18;007;005;
26720;PMS1003;15950;51.112;6.966;2024-01-25T15:56:18;010;007;
26720;PMS1003;15950;51.112;6.966;2024-01-25T15:59:18;007;005;
26720;PMS1003;15950;51.112;6.966;2024-01-25T16:02:18;012;009;
26720;PMS1003;15950;51.112;6.966;2024-01-25T16:05:18;013;009;
26720;PMS1003;15950;51.112;6.966;2024-01-25T16:08:18;007;006;
26720;PMS1003;15950;51.112;6.966;2024-01-25T16:11:18;008;006;
26720;PMS1003;15950;51.112;6.966;2024-01-25T16:14:18;009;006;
26720;PMS1003;15950;51.112;6.966;2024-01-25T16:17:18;009;006;
26720;PMS1003;15950;51.112;6.966;2024-01-25T16:20:18;006;004;
26720;PMS1003;15950;51.112;6.966;2024-01-25T16:23:18;006;004;
26720;PMS1003;15950;51.112;6.966;2024-01-25T16:26:18;005;003;
26720;PMS1003;15950;51.112;6.966;2024-01-25T16:29:20;005;004;
26720;PMS1003;15950;51.112;6.966;2024-01-25T16:32:18;006;004;
26720;PMS1003;15950;51.112;6.966;2024-01-25T16:35:18;006;004;
26720;PMS1003;15950;51.112;6.966;2024-01-25T16:38:18;004;003;
26720;PMS1003;15950;51.112;6.966;2024-01-25T16:41:18;007;005;
26720;PMS1003;15950;51.112;6.966;2024-01-25T16:44:18;005;003;
26720;PMS1003;15950;51.112;6.966;2024-01-25T16:47:18;009;009;
26720;PMS1003;15950;51.112;6.966;2024-01-25T16:50:18;005;003;
26720;PMS1003;15950;51.112;6.966;2024-01-25T16:53:18;005;003;
26720;PMS1003;15950;51.112;6.966;2024-01-25T16:56:18;014;010;
26720;PMS1003;15950;51.112;6.966;2024-01-25T16:59:18;010;007;
26720;PMS1003;15950;51.112;6.966;2024-01-25T17:02:18;014;011;
26720;PMS1003;15950;51.112;6.966;2024-01-25T17:05:18;010;007;
26720;PMS1003;15950;51.112;6.966;2024-01-25T17:08:18;019;013;
26720;PMS1003;15950;51.112;6.966;2024-01-25T17:11:18;009;006;
26720;PMS1003;15950;51.112;6.966;2024-01-25T17:14:18;003;002;
26720;PMS1003;15950;51.112;6.966;2024-01-25T17:17:18;003;002;
26720;PMS1003;15950;51.112;6.966;2024-01-25T17:20:18;006;005;
26720;PMS1003;15950;51.112;6.966;2024-01-25T17:23:18;009;006;
26720;PMS1003;15950;51.112;6.966;2024-01-25T17:26:19;009;007;
26720;PMS1003;15950;51.112;6.966;2024-01-25T17:29:18;034;024;
26720;PMS1003;15950;51.112;6.966;2024-01-25T17:32:18;040;031;
26720;PMS1003;15950;51.112;6.966;2024-01-25T17:35:18;025;019;
26720;PMS1003;15950;51.112;6.966;2024-01-25T17:38:18;010;007;
26720;PMS1003;15950;51.112;6.966;2024-01-25T17:41:18;009;006;
26720;PMS1003;15950;51.112;6.966;2024-01-25T17:44:18;014;010;
26720;PMS1003;15950;51.112;6.966;2024-01-25T17:47:18;015;011;
26720;PMS1003;15950;51.112;6.966;2024-01-25T17:50:18;012;008;
26720;PMS1003;15950;51.112;6.966;2024-01-25T17:53:18;008;007;
26720;PMS1003;15950;51.112;6.966;2024-01-25T17:56:18;007;005;
26720;PMS1003;15950;51.112;6.966;2024-01-25T17:59:18;009;006;
26720;PMS1003;15950;51.112;6.966;2024-01-25T18:02:18;007;006;
26720;PMS1003;15950;51.112;6.966;2024-01-25T18:05:18;012;008;
26720;PMS1003;15950;51.112;6.966;2024-01-25T18:08:18;009;006;
26720;PMS1003;15950;51.112;6.966;2024-01-25T18:11:18;005;005;
26720;PMS1003;15950;51.112;6.966;2024-01-25T18:14:18;010;007;
26720;PMS1003;15950;51.112;6.966;2024-01-25T18:17:18;010;007;
26720;PMS1003;15950;51.112;6.966;2024-01-25T18:20:18;013;009;
26720;PMS1003;15950;51.112;6.966;2024-01-25T18:23:18;009;006;
26720;PMS1003;15950;51.112;6.966;2024-01-25T18:26:18;009;006;
26720;PMS1003;15950;51.112;6.966;2024-01-25T18:29:18;006;004;
26720;PMS1003;15950;51.112;6.966;2024-01-25T18:32:18;009;006;
26720;PMS1003;15950;51.112;6.966;2024-01-25T18:35:18;009;007;
26720;PMS1003;15950;51.112;6.966;2024-01-25T18:38:18;014;010;
26720;PMS1003;15950;51.112;6.966;2024-01-25T18:41:18;040;032;
26720;PMS1003;15950;51.112;6.966;2024-01-25T18:44:18;024;017;
26720;PMS1003;15950;51.112;6.966;2024-01-25T18:47:18;021;015;
26720;PMS1003;15950;51.112;6.966;2024-01-25T18:50:18;023;016;
26720;PMS1003;15950;51.112;6.966;2024-01-25T18:53:18;014;012;
26720;PMS1003;15950;51.112;6.966;2024-01-25T18:56:18;030;022;
26720;PMS1003;15950;51.112;6.966;2024-01-25T18:59:18;017;012;
26720;PMS1003;15950;51.112;6.966;2024-01-25T19:02:18;015;011;
26720;PMS1003;15950;51.112;6.966;2024-01-25T19:05:18;012;011;
26720;PMS1003;15950;51.112;6.966;2024-01-25T19:08:18;012;008;
26720;PMS1003;15950;51.112;6.966;2024-01-25T19:11:18;017;012;
26720;PMS1003;15950;51.112;6.966;2024-01-25T19:14:18;006;004;
26720;PMS1003;15950;51.112;6.966;2024-01-25T19:17:18;007;005;
26720;PMS1003;15950;51.112;6.966;2024-01-25T19:20:18;014;012;